Time;durP1;ratioP1;P1;durP2;ratioP2;P2;SDS_P1;SDS_P2;PMS_P1;PMS_P2;Temp;Humidity;BMP_temperature;BMP_pressure;BME280_temperature;BME280_humidity;BME280_pressure;Samples;Min_cycle;Max_cycle;Signal;HPM_P1;HPM_P2
2021/07/22 00:01:03;;;;;;;5.07;3.38;;;;;;;;;;5015109;28;20062;-76
2021/07/22 00:03:29;;;;;;;5.90;3.58;;;;;;;;;;5012427;28;20502;-75
2021/07/22 00:05:55;;;;;;;4.90;3.42;;;;;;;;;;4997783;28;20070;-76
2021/07/22 00:08:22;;;;;;;4.43;3.20;;;;;;;;;;5012078;28;20081;-76
2021/07/22 00:10:48;;;;;;;5.53;3.60;;;;;;;;;;5004874;28;20507;-76
2021/07/22 00:13:14;;;;;;;5.20;3.72;;;;;;;;;;5007743;28;20134;-76
2021/07/22 00:15:41;;;;;;;6.13;3.28;;;;;;;;;;5001264;28;20057;-76
2021/07/22 00:18:07;;;;;;;5.72;3.50;;;;;;;;;;5013891;28;20064;-75
2021/07/22 00:20:34;;;;;;;6.10;3.35;;;;;;;;;;5009228;28;20077;-75
2021/07/22 00:23:00;;;;;;;5.55;3.70;;;;;;;;;;5003912;28;20076;-76
2021/07/22 00:25:26;;;;;;;4.93;3.30;;;;;;;;;;4984689;28;20050;-76
2021/07/22 00:27:53;;;;;;;4.60;3.35;;;;;;;;;;5000639;28;20057;-76
2021/07/22 00:30:19;;;;;;;4.18;3.05;;;;;;;;;;4992662;28;20030;-75
2021/07/22 00:32:45;;;;;;;4.47;3.20;;;;;;;;;;4998906;28;20131;-75
2021/07/22 00:35:12;;;;;;;5.13;3.38;;;;;;;;;;5005707;28;20057;-75
2021/07/22 00:37:38;;;;;;;5.28;3.60;;;;;;;;;;5006132;28;20454;-76
2021/07/22 00:40:05;;;;;;;6.40;4.10;;;;;;;;;;5007209;28;20053;-76
2021/07/22 00:42:51;;;;;;;5.10;3.28;;;;;;;;;;5014410;28;20060;-76
2021/07/22 00:45:18;;;;;;;4.93;3.25;;;;;;;;;;5005570;28;20422;-75
2021/07/22 00:47:44;;;;;;;4.95;3.30;;;;;;;;;;5000422;28;20046;-76
2021/07/22 00:50:11;;;;;;;5.57;3.53;;;;;;;;;;5006686;28;20066;-76
2021/07/22 00:52:37;;;;;;;6.68;3.40;;;;;;;;;;5005241;28;20124;-76
2021/07/22 00:55:03;;;;;;;5.00;3.08;;;;;;;;;;4997734;28;20058;-76
2021/07/22 00:57:30;;;;;;;5.45;3.25;;;;;;;;;;5000825;28;20069;-75
2021/07/22 00:59:56;;;;;;;5.13;3.20;;;;;;;;;;4996608;28;20053;-76
2021/07/22 01:02:22;;;;;;;5.72;3.35;;;;;;;;;;4998552;28;20058;-76
2021/07/22 01:04:49;;;;;;;5.18;3.45;;;;;;;;;;4997535;28;20469;-76
2021/07/22 01:07:15;;;;;;;5.07;3.33;;;;;;;;;;4999261;28;20120;-76
2021/07/22 01:09:42;;;;;;;4.80;3.08;;;;;;;;;;5006317;28;20069;-76
2021/07/22 01:12:08;;;;;;;4.35;3.17;;;;;;;;;;5012112;28;20461;-76
2021/07/22 01:14:34;;;;;;;5.93;3.75;;;;;;;;;;5009396;28;20460;-76
2021/07/22 01:17:05;;;;;;;4.20;3.22;;;;;;;;;;5005190;28;20057;-76
2021/07/22 01:19:31;;;;;;;5.75;3.08;;;;;;;;;;5016503;28;20057;-76
2021/07/22 01:21:57;;;;;;;4.85;3.42;;;;;;;;;;5008575;28;20497;-77
2021/07/22 01:24:24;;;;;;;5.05;3.47;;;;;;;;;;5008792;28;20061;-76
2021/07/22 01:26:50;;;;;;;5.38;3.58;;;;;;;;;;5012793;28;20062;-76
2021/07/22 01:29:16;;;;;;;6.30;3.30;;;;;;;;;;4992611;28;20065;-76
2021/07/22 01:31:43;;;;;;;6.07;3.72;;;;;;;;;;5009065;28;20061;-76
2021/07/22 01:34:09;;;;;;;4.60;3.47;;;;;;;;;;5010569;28;20073;-76
2021/07/22 01:36:36;;;;;;;5.00;3.38;;;;;;;;;;5011804;28;20061;-76
2021/07/22 01:39:02;;;;;;;5.00;3.20;;;;;;;;;;4990800;28;20127;-76
2021/07/22 01:41:29;;;;;;;5.60;3.70;;;;;;;;;;5012039;28;20045;-76
2021/07/22 01:43:55;;;;;;;5.88;3.42;;;;;;;;;;5019006;28;20057;-76
2021/07/22 01:46:22;;;;;;;5.30;3.25;;;;;;;;;;5009454;28;20060;-76
2021/07/22 01:48:48;;;;;;;4.22;3.03;;;;;;;;;;4999767;28;20529;-76
2021/07/22 01:51:14;;;;;;;5.57;3.08;;;;;;;;;;5006084;28;20062;-76
2021/07/22 01:53:41;;;;;;;6.30;3.50;;;;;;;;;;5011183;28;20088;-76
2021/07/22 01:56:07;;;;;;;6.10;3.85;;;;;;;;;;5003275;28;20045;-76
2021/07/22 01:58:34;;;;;;;5.32;3.25;;;;;;;;;;5008443;28;20066;-75
2021/07/22 02:01:02;;;;;;;4.85;3.13;;;;;;;;;;5004800;28;20128;-75
2021/07/22 02:03:28;;;;;;;5.05;3.30;;;;;;;;;;5013723;28;20049;-75
2021/07/22 02:05:55;;;;;;;4.72;3.13;;;;;;;;;;5004328;28;20069;-76
2021/07/22 02:08:21;;;;;;;5.90;3.35;;;;;;;;;;5010497;28;20082;-75
2021/07/22 02:10:47;;;;;;;5.57;3.22;;;;;;;;;;5008179;28;20058;-75
2021/07/22 02:13:14;;;;;;;6.10;3.80;;;;;;;;;;5006012;28;20049;-76
2021/07/22 02:15:40;;;;;;;5.65;3.35;;;;;;;;;;5005082;28;20528;-76
2021/07/22 02:18:07;;;;;;;5.20;3.03;;;;;;;;;;5006320;28;20061;-76
2021/07/22 02:20:33;;;;;;;5.30;3.33;;;;;;;;;;5005667;28;20482;-76
2021/07/22 02:22:59;;;;;;;5.28;3.45;;;;;;;;;;5013694;28;20781;-76
2021/07/22 02:25:26;;;;;;;4.15;3.20;;;;;;;;;;5001596;28;20065;-75
2021/07/22 02:27:52;;;;;;;4.72;3.17;;;;;;;;;;4991901;28;20116;-77
2021/07/22 02:30:19;;;;;;;5.80;3.65;;;;;;;;;;5007075;28;21552;-75
2021/07/22 02:32:45;;;;;;;6.40;3.53;;;;;;;;;;5007473;28;20069;-75
2021/07/22 02:35:11;;;;;;;5.80;3.53;;;;;;;;;;4989256;28;20049;-76
2021/07/22 02:37:38;;;;;;;5.38;3.58;;;;;;;;;;5002241;28;20053;-76
2021/07/22 02:40:04;;;;;;;5.10;3.60;;;;;;;;;;5007334;28;20062;-76
2021/07/22 02:42:31;;;;;;;4.82;3.10;;;;;;;;;;5003837;28;20065;-76
2021/07/22 02:44:57;;;;;;;4.57;3.35;;;;;;;;;;5009442;28;20565;-76
2021/07/22 02:47:24;;;;;;;4.88;3.22;;;;;;;;;;5014101;28;20056;-76
2021/07/22 02:49:50;;;;;;;5.57;3.40;;;;;;;;;;5014147;28;20081;-76
2021/07/22 02:52:16;;;;;;;6.13;3.47;;;;;;;;;;5012981;28;20064;-76
2021/07/22 02:54:43;;;;;;;3.90;3.20;;;;;;;;;;5008134;28;20065;-75
2021/07/22 02:57:09;;;;;;;4.90;3.80;;;;;;;;;;4998237;28;20050;-76
2021/07/22 02:59:35;;;;;;;5.28;3.50;;;;;;;;;;5006704;28;20061;-76
2021/07/22 03:02:02;;;;;;;4.68;3.22;;;;;;;;;;5010640;28;20065;-75
2021/07/22 03:04:32;;;;;;;5.05;3.33;;;;;;;;;;5009872;28;20096;-75
2021/07/22 03:06:58;;;;;;;5.43;3.20;;;;;;;;;;5001345;28;20092;-76
2021/07/22 03:09:25;;;;;;;4.78;3.30;;;;;;;;;;5007453;28;20437;-75
2021/07/22 03:11:51;;;;;;;5.47;3.35;;;;;;;;;;5013591;28;20037;-76
2021/07/22 03:14:17;;;;;;;3.47;2.67;;;;;;;;;;5001529;28;20427;-75
2021/07/22 03:16:44;;;;;;;5.63;3.42;;;;;;;;;;4990792;28;20095;-75
2021/07/22 03:19:10;;;;;;;4.65;3.30;;;;;;;;;;5012643;28;20054;-75
2021/07/22 03:21:37;;;;;;;5.43;3.35;;;;;;;;;;5008002;28;20060;-75
2021/07/22 03:24:03;;;;;;;4.90;3.15;;;;;;;;;;5001461;28;20101;-75
2021/07/22 03:26:29;;;;;;;6.15;3.67;;;;;;;;;;5004933;28;20058;-75
2021/07/22 03:28:56;;;;;;;5.43;3.42;;;;;;;;;;5013173;28;20128;-75
2021/07/22 03:31:22;;;;;;;4.60;3.13;;;;;;;;;;5008106;28;20066;-75
2021/07/22 03:33:48;;;;;;;5.25;3.63;;;;;;;;;;4989499;28;20442;-75
2021/07/22 03:36:15;;;;;;;4.68;3.00;;;;;;;;;;5009007;28;20053;-75
2021/07/22 03:38:41;;;;;;;5.15;3.50;;;;;;;;;;5004584;28;20540;-75
2021/07/22 03:41:13;;;;;;;5.78;3.80;;;;;;;;;;5005312;28;20062;-75
2021/07/22 03:43:39;;;;;;;4.57;3.10;;;;;;;;;;5007692;28;20057;-75
2021/07/22 03:46:05;;;;;;;5.43;3.45;;;;;;;;;;4988916;28;20112;-76
2021/07/22 03:48:32;;;;;;;5.10;3.28;;;;;;;;;;5000978;28;20046;-77
2021/07/22 03:50:58;;;;;;;5.75;3.33;;;;;;;;;;5003258;28;20502;-76
2021/07/22 03:53:25;;;;;;;4.47;3.22;;;;;;;;;;4997594;28;20084;-75
2021/07/22 03:55:51;;;;;;;3.92;3.00;;;;;;;;;;5001341;28;20058;-75
2021/07/22 03:58:18;;;;;;;3.83;2.83;;;;;;;;;;5007350;28;20871;-75
2021/07/22 04:00:44;;;;;;;6.40;3.35;;;;;;;;;;5007120;28;20437;-76
2021/07/22 04:03:10;;;;;;;5.38;3.30;;;;;;;;;;5002447;28;20058;-77
2021/07/22 04:05:37;;;;;;;4.38;3.00;;;;;;;;;;5004654;28;20089;-76
2021/07/22 04:08:03;;;;;;;5.20;3.40;;;;;;;;;;4996352;28;20077;-76
2021/07/22 04:10:30;;;;;;;6.20;3.40;;;;;;;;;;4995669;28;20069;-75
2021/07/22 04:13:00;;;;;;;5.85;3.40;;;;;;;;;;5015415;28;20088;-75
2021/07/22 04:15:26;;;;;;;5.22;3.13;;;;;;;;;;5003881;28;20076;-75
2021/07/22 04:17:54;;;;;;;4.45;3.35;;;;;;;;;;5009519;28;20037;-76
2021/07/22 04:20:21;;;;;;;5.45;3.35;;;;;;;;;;5005007;28;20061;-75
2021/07/22 04:22:48;;;;;;;4.22;2.95;;;;;;;;;;5007158;28;20065;-75
2021/07/22 04:25:15;;;;;;;6.45;3.80;;;;;;;;;;5010180;28;20073;-75
2021/07/22 04:27:41;;;;;;;5.00;3.50;;;;;;;;;;5014559;28;20528;-75
2021/07/22 04:30:08;;;;;;;4.60;3.42;;;;;;;;;;5006173;28;20082;-76
2021/07/22 04:32:35;;;;;;;4.65;3.20;;;;;;;;;;5009192;28;20065;-76
2021/07/22 04:35:02;;;;;;;4.88;2.95;;;;;;;;;;5012962;28;20062;-76
2021/07/22 04:37:28;;;;;;;4.60;3.60;;;;;;;;;;5004432;28;20042;-75
2021/07/22 04:39:55;;;;;;;4.82;3.45;;;;;;;;;;5005006;28;20066;-76
2021/07/22 04:42:21;;;;;;;5.28;3.30;;;;;;;;;;5018750;28;20092;-75
2021/07/22 04:44:48;;;;;;;4.38;3.33;;;;;;;;;;5020356;28;20087;-76
2021/07/22 04:47:14;;;;;;;4.68;3.10;;;;;;;;;;5014673;28;20455;-75
2021/07/22 04:49:40;;;;;;;5.50;3.50;;;;;;;;;;5001470;28;20590;-76
2021/07/22 04:52:07;;;;;;;4.70;3.20;;;;;;;;;;4991116;28;20108;-76
2021/07/22 04:54:33;;;;;;;3.75;3.08;;;;;;;;;;5014491;28;20053;-76
2021/07/22 04:57:00;;;;;;;4.72;3.38;;;;;;;;;;5014166;28;20069;-76
2021/07/22 04:59:26;;;;;;;5.15;3.20;;;;;;;;;;5016505;28;20063;-76
2021/07/22 05:01:52;;;;;;;5.18;3.33;;;;;;;;;;5013355;28;20062;-76
2021/07/22 05:04:19;;;;;;;5.25;3.15;;;;;;;;;;5002011;28;20578;-76
2021/07/22 05:06:45;;;;;;;6.38;3.13;;;;;;;;;;4990040;28;20058;-76
2021/07/22 05:09:12;;;;;;;4.10;2.78;;;;;;;;;;4992891;28;20722;-76
2021/07/22 05:11:38;;;;;;;5.25;3.45;;;;;;;;;;5011354;28;20120;-76
2021/07/22 05:14:05;;;;;;;5.40;3.40;;;;;;;;;;5009664;28;20065;-75
2021/07/22 05:16:31;;;;;;;4.40;3.22;;;;;;;;;;5007863;28;20057;-77
2021/07/22 05:18:57;;;;;;;4.30;2.90;;;;;;;;;;5005332;28;20054;-76
2021/07/22 05:21:24;;;;;;;5.50;3.33;;;;;;;;;;5022482;28;20052;-76
2021/07/22 05:23:50;;;;;;;5.32;2.85;;;;;;;;;;5024944;28;20481;-76
2021/07/22 05:26:17;;;;;;;5.63;3.17;;;;;;;;;;5013654;28;20062;-76
2021/07/22 05:28:44;;;;;;;5.07;3.42;;;;;;;;;;5009723;28;20041;-75
2021/07/22 05:31:10;;;;;;;3.75;2.83;;;;;;;;;;5010559;28;20068;-76
2021/07/22 05:33:39;;;;;;;5.95;3.40;;;;;;;;;;5008627;28;20077;-76
2021/07/22 05:36:06;;;;;;;5.78;3.05;;;;;;;;;;5017679;28;20132;-76
2021/07/22 05:38:33;;;;;;;4.75;3.10;;;;;;;;;;5000200;28;20069;-76
2021/07/22 05:41:00;;;;;;;6.93;3.35;;;;;;;;;;5009638;28;20084;-76
2021/07/22 05:43:27;;;;;;;4.90;3.00;;;;;;;;;;5005144;28;20120;-76
2021/07/22 05:45:53;;;;;;;4.35;2.90;;;;;;;;;;5009030;28;20049;-77
2021/07/22 05:48:23;;;;;;;5.50;3.10;;;;;;;;;;5011062;28;20099;-75
2021/07/22 05:50:50;;;;;;;5.70;3.30;;;;;;;;;;5000339;28;20097;-75
2021/07/22 05:53:17;;;;;;;5.07;3.03;;;;;;;;;;5019314;28;20049;-75
2021/07/22 05:55:43;;;;;;;5.75;3.45;;;;;;;;;;5005321;28;20046;-75
2021/07/22 05:58:10;;;;;;;4.00;3.17;;;;;;;;;;5002793;28;20062;-75
2021/07/22 06:00:36;;;;;;;3.78;2.92;;;;;;;;;;5014080;28;20465;-75
2021/07/22 06:03:08;;;;;;;6.53;3.60;;;;;;;;;;5006430;28;20057;-76
2021/07/22 06:05:35;;;;;;;6.60;3.40;;;;;;;;;;5004074;28;20070;-75
2021/07/22 06:08:02;;;;;;;5.90;3.55;;;;;;;;;;5007046;28;20146;-75
2021/07/22 06:10:28;;;;;;;3.85;2.70;;;;;;;;;;5006157;28;20085;-75
2021/07/22 06:12:55;;;;;;;6.68;2.97;;;;;;;;;;5000931;28;20064;-76
2021/07/22 06:15:22;;;;;;;3.92;2.95;;;;;;;;;;5005308;28;20041;-75
2021/07/22 06:17:49;;;;;;;6.50;3.80;;;;;;;;;;5018521;28;20088;-74
2021/07/22 06:20:15;;;;;;;4.93;3.00;;;;;;;;;;4996355;28;20054;-75
2021/07/22 06:22:45;;;;;;;6.10;3.22;;;;;;;;;;5009765;28;20065;-75
2021/07/22 06:25:15;;;;;;;4.70;3.20;;;;;;;;;;5003686;28;20485;-75
2021/07/22 06:27:41;;;;;;;5.05;3.33;;;;;;;;;;5010291;28;20057;-75
2021/07/22 06:30:08;;;;;;;4.53;2.85;;;;;;;;;;5017231;28;20549;-76
2021/07/22 06:32:35;;;;;;;4.25;3.20;;;;;;;;;;5004055;28;20139;-75
2021/07/22 06:35:01;;;;;;;5.32;3.40;;;;;;;;;;5007376;28;20054;-76
2021/07/22 06:37:28;;;;;;;5.90;3.50;;;;;;;;;;5001290;28;20046;-75
2021/07/22 06:39:55;;;;;;;4.38;2.92;;;;;;;;;;5008944;28;20068;-76
2021/07/22 06:42:21;;;;;;;4.78;3.45;;;;;;;;;;4992585;28;20188;-75
2021/07/22 06:44:47;;;;;;;6.78;3.58;;;;;;;;;;5007416;28;20065;-75
2021/07/22 06:47:14;;;;;;;5.97;3.65;;;;;;;;;;5012718;28;20068;-75
2021/07/22 06:49:40;;;;;;;4.63;3.17;;;;;;;;;;5009515;28;20061;-75
2021/07/22 06:52:07;;;;;;;4.72;3.17;;;;;;;;;;5006481;28;20049;-75
2021/07/22 06:54:34;;;;;;;5.95;3.42;;;;;;;;;;4998875;28;20057;-75
2021/07/22 06:57:00;;;;;;;4.88;3.00;;;;;;;;;;4984950;28;20119;-74
2021/07/22 06:59:26;;;;;;;4.03;2.80;;;;;;;;;;5008510;28;20061;-75
2021/07/22 07:01:53;;;;;;;4.68;3.20;;;;;;;;;;5011953;28;20068;-76
2021/07/22 07:04:19;;;;;;;6.50;3.45;;;;;;;;;;5009839;28;20096;-76
2021/07/22 07:06:46;;;;;;;5.43;3.55;;;;;;;;;;5013324;28;20512;-76
2021/07/22 07:09:12;;;;;;;4.47;3.08;;;;;;;;;;5012925;28;20069;-76
2021/07/22 07:11:38;;;;;;;5.75;3.28;;;;;;;;;;5011401;28;20120;-76
2021/07/22 07:14:05;;;;;;;4.22;3.03;;;;;;;;;;5015397;28;20125;-76
2021/07/22 07:16:31;;;;;;;5.28;3.17;;;;;;;;;;5014971;28;20058;-76
2021/07/22 07:18:57;;;;;;;6.38;3.10;;;;;;;;;;5014781;28;20060;-77
2021/07/22 07:21:24;;;;;;;5.90;3.38;;;;;;;;;;4998343;28;20437;-76
2021/07/22 07:23:50;;;;;;;4.18;2.90;;;;;;;;;;5011385;28;20060;-76
2021/07/22 07:26:17;;;;;;;4.78;3.20;;;;;;;;;;5013456;28;20117;-76
2021/07/22 07:28:43;;;;;;;5.38;3.17;;;;;;;;;;5007253;28;20107;-75
2021/07/22 07:31:09;;;;;;;4.95;2.92;;;;;;;;;;5004102;28;20062;-76
2021/07/22 07:33:36;;;;;;;6.38;3.47;;;;;;;;;;5010366;28;20594;-76
2021/07/22 07:36:02;;;;;;;4.13;3.10;;;;;;;;;;5002754;28;20065;-76
2021/07/22 07:38:29;;;;;;;5.57;3.05;;;;;;;;;;5003195;28;20045;-75
2021/07/22 07:40:55;;;;;;;4.68;3.10;;;;;;;;;;5006840;28;20072;-75
2021/07/22 07:43:22;;;;;;;5.40;3.35;;;;;;;;;;5007938;28;20546;-75
2021/07/22 07:45:50;;;;;;;4.45;3.22;;;;;;;;;;5012638;28;20060;-75
2021/07/22 07:48:16;;;;;;;4.18;3.03;;;;;;;;;;5013264;28;20670;-75
2021/07/22 07:50:43;;;;;;;5.63;3.25;;;;;;;;;;5013093;28;20069;-75
2021/07/22 07:53:13;;;;;;;5.18;3.30;;;;;;;;;;5010368;28;20521;-75
2021/07/22 07:55:39;;;;;;;4.30;3.00;;;;;;;;;;5009925;28;20061;-75
2021/07/22 07:58:06;;;;;;;3.85;3.00;;;;;;;;;;5015356;28;20060;-76
2021/07/22 08:00:32;;;;;;;5.00;3.13;;;;;;;;;;5000873;28;21225;-76
2021/07/22 08:02:59;;;;;;;6.18;3.33;;;;;;;;;;5014418;28;20045;-76
2021/07/22 08:05:26;;;;;;;5.93;3.55;;;;;;;;;;5004480;28;20070;-75
2021/07/22 08:07:52;;;;;;;6.90;3.40;;;;;;;;;;5004267;28;20077;-75
2021/07/22 08:10:19;;;;;;;4.65;3.47;;;;;;;;;;5013806;28;20061;-75
2021/07/22 08:12:45;;;;;;;4.53;2.47;;;;;;;;;;5014952;28;20061;-75
2021/07/22 08:15:12;;;;;;;5.38;3.40;;;;;;;;;;4999101;28;20054;-75
2021/07/22 08:17:38;;;;;;;5.00;3.22;;;;;;;;;;5002560;28;20057;-75
2021/07/22 08:20:06;;;;;;;5.75;3.40;;;;;;;;;;5002561;28;20057;-76
2021/07/22 08:22:33;;;;;;;6.47;3.63;;;;;;;;;;5000670;28;20065;-75
2021/07/22 08:24:59;;;;;;;5.25;3.00;;;;;;;;;;5005179;28;20057;-75
2021/07/22 08:27:26;;;;;;;4.13;3.20;;;;;;;;;;5006817;28;20084;-75
2021/07/22 08:29:53;;;;;;;4.53;3.30;;;;;;;;;;5007188;28;20054;-76
2021/07/22 08:32:20;;;;;;;4.75;2.63;;;;;;;;;;5005221;28;21124;-76
2021/07/22 08:34:47;;;;;;;5.32;3.60;;;;;;;;;;4994251;28;20057;-75
2021/07/22 08:37:14;;;;;;;5.03;3.00;;;;;;;;;;4986471;28;20038;-76
2021/07/22 08:39:41;;;;;;;5.03;3.03;;;;;;;;;;4993629;28;20072;-75
2021/07/22 08:42:09;;;;;;;5.50;3.28;;;;;;;;;;5011158;28;20050;-76
2021/07/22 08:44:35;;;;;;;5.63;2.95;;;;;;;;;;5007952;28;20061;-75
2021/07/22 08:47:02;;;;;;;5.35;2.90;;;;;;;;;;5013987;28;20528;-76
2021/07/22 08:49:29;;;;;;;5.20;2.92;;;;;;;;;;4986960;28;20050;-75
2021/07/22 08:51:56;;;;;;;4.93;3.30;;;;;;;;;;5003708;28;20058;-76
2021/07/22 08:54:22;;;;;;;5.47;2.95;;;;;;;;;;5007753;28;20064;-75
2021/07/22 08:56:49;;;;;;;5.63;3.53;;;;;;;;;;5014349;28;20423;-75
2021/07/22 08:59:16;;;;;;;4.53;3.15;;;;;;;;;;4994792;28;20074;-75
2021/07/22 09:01:45;;;;;;;4.70;3.13;;;;;;;;;;4993846;28;20057;-75
2021/07/22 09:04:12;;;;;;;6.15;2.83;;;;;;;;;;5006583;28;20108;-75
2021/07/22 09:06:38;;;;;;;4.03;2.83;;;;;;;;;;5002681;28;20084;-75
2021/07/22 09:09:15;;;;;;;5.57;3.38;;;;;;;;;;4992880;28;20077;-75
2021/07/22 09:11:59;;;;;;;4.88;2.75;;;;;;;;;;5012409;28;20066;-75
2021/07/22 09:14:27;;;;;;;4.60;3.03;;;;;;;;;;5000920;28;20108;-75
2021/07/22 09:16:53;;;;;;;4.22;2.50;;;;;;;;;;5007798;28;20084;-75
2021/07/22 09:19:41;;;;;;;4.72;2.55;;;;;;;;;;5006460;28;21213;-76
2021/07/22 09:22:08;;;;;;;4.15;2.70;;;;;;;;;;4999022;28;20104;-75
2021/07/22 09:24:48;;;;;;;4.85;3.33;;;;;;;;;;5002171;28;20497;-76
2021/07/22 09:27:35;;;;;;;3.92;2.78;;;;;;;;;;5005186;28;20065;-76
2021/07/22 09:30:02;;;;;;;5.45;2.78;;;;;;;;;;4997389;28;20126;-76
2021/07/22 09:32:30;;;;;;;5.95;2.95;;;;;;;;;;5010673;28;20490;-77
2021/07/22 09:35:09;;;;;;;5.30;3.28;;;;;;;;;;5009854;28;20116;-77
2021/07/22 09:37:42;;;;;;;4.90;2.75;;;;;;;;;;5016598;28;20039;-75
2021/07/22 09:40:09;;;;;;;5.03;3.17;;;;;;;;;;4997181;28;20124;-75
2021/07/22 09:42:47;;;;;;;5.65;2.88;;;;;;;;;;5006887;28;20451;-76
2021/07/22 09:45:15;;;;;;;6.05;2.90;;;;;;;;;;5014387;28;20124;-76
2021/07/22 09:47:41;;;;;;;5.68;2.40;;;;;;;;;;5007624;28;20544;-74
2021/07/22 09:50:09;;;;;;;6.53;3.42;;;;;;;;;;5000958;28;20441;-75
2021/07/22 09:52:35;;;;;;;6.30;3.28;;;;;;;;;;5018087;28;20605;-75
2021/07/22 09:55:01;;;;;;;4.85;3.00;;;;;;;;;;5010458;28;20484;-75
2021/07/22 09:57:28;;;;;;;5.05;2.38;;;;;;;;;;5013565;28;20057;-75
2021/07/22 09:59:56;;;;;;;5.78;3.22;;;;;;;;;;4996771;28;20037;-75
2021/07/22 10:02:23;;;;;;;4.55;2.72;;;;;;;;;;5003249;28;20496;-76
2021/07/22 10:04:53;;;;;;;5.22;3.15;;;;;;;;;;4999224;28;20065;-75
2021/07/22 10:07:21;;;;;;;5.32;2.63;;;;;;;;;;5001319;28;20076;-75
2021/07/22 10:09:51;;;;;;;6.22;3.13;;;;;;;;;;5005518;28;20099;-76
2021/07/22 10:12:20;;;;;;;5.18;3.03;;;;;;;;;;5010719;28;20390;-75
2021/07/22 10:14:48;;;;;;;5.00;3.00;;;;;;;;;;4986925;28;20078;-76
2021/07/22 10:17:14;;;;;;;5.03;2.60;;;;;;;;;;5006881;28;20087;-75
2021/07/22 10:19:45;;;;;;;4.65;2.80;;;;;;;;;;4991310;28;20054;-75
2021/07/22 10:22:11;;;;;;;4.60;2.67;;;;;;;;;;4965613;28;20035;-76
2021/07/22 10:24:38;;;;;;;4.20;2.53;;;;;;;;;;4995386;28;20113;-76
2021/07/22 10:27:07;;;;;;;5.10;2.95;;;;;;;;;;5002142;28;20125;-76
2021/07/22 10:29:35;;;;;;;4.90;2.97;;;;;;;;;;4987177;28;20065;-75
2021/07/22 10:32:04;;;;;;;6.68;3.10;;;;;;;;;;4979704;28;20046;-75
2021/07/22 10:34:32;;;;;;;3.97;2.50;;;;;;;;;;5003109;28;20057;-76
2021/07/22 10:36:59;;;;;;;3.38;2.38;;;;;;;;;;4995250;28;20060;-76
2021/07/22 10:39:45;;;;;;;3.38;2.30;;;;;;;;;;4991695;28;20088;-75
2021/07/22 10:42:31;;;;;;;4.93;2.85;;;;;;;;;;5007265;28;20068;-75
2021/07/22 10:44:57;;;;;;;5.30;2.65;;;;;;;;;;5002308;28;20064;-76
2021/07/22 10:47:24;;;;;;;4.43;2.50;;;;;;;;;;5007553;28;20466;-75
2021/07/22 10:49:50;;;;;;;4.55;2.80;;;;;;;;;;5007432;28;20057;-76
2021/07/22 10:52:36;;;;;;;5.63;2.85;;;;;;;;;;5007049;28;20130;-76
2021/07/22 10:55:03;;;;;;;4.97;3.20;;;;;;;;;;4997948;28;20050;-76
2021/07/22 10:57:37;;;;;;;3.85;2.47;;;;;;;;;;5005072;28;20069;-76
2021/07/22 11:00:04;;;;;;;3.50;2.28;;;;;;;;;;5007712;28;20057;-76
2021/07/22 11:02:47;;;;;;;5.63;2.60;;;;;;;;;;5007937;28;20057;-76
2021/07/22 11:05:24;;;;;;;4.40;2.75;;;;;;;;;;5002053;28;20094;-76
2021/07/22 11:08:09;;;;;;;5.07;2.95;;;;;;;;;;5008355;28;20061;-75
2021/07/22 11:10:51;;;;;;;4.85;2.80;;;;;;;;;;5012545;28;22792;-75
2021/07/22 11:13:39;;;;;;;5.70;3.22;;;;;;;;;;5015182;28;20607;-75
2021/07/22 11:16:06;;;;;;;5.22;2.97;;;;;;;;;;4998758;28;20434;-76
2021/07/22 11:18:42;;;;;;;5.25;2.30;;;;;;;;;;5007243;28;20062;-76
2021/07/22 11:21:16;;;;;;;5.45;3.00;;;;;;;;;;4999912;28;20089;-75
2021/07/22 11:23:52;;;;;;;5.32;3.30;;;;;;;;;;4990678;28;20043;-75
2021/07/22 11:26:22;;;;;;;4.15;2.95;;;;;;;;;;5012972;28;20504;-75
2021/07/22 11:28:51;;;;;;;2.90;1.90;;;;;;;;;;4996884;28;20074;-75
2021/07/22 11:31:18;;;;;;;4.82;2.88;;;;;;;;;;4999893;28;20058;-75
2021/07/22 11:33:45;;;;;;;3.90;2.47;;;;;;;;;;5008410;28;20045;-75
2021/07/22 11:36:16;;;;;;;3.17;2.47;;;;;;;;;;4996173;28;20087;-76
2021/07/22 11:38:51;;;;;;;3.95;2.60;;;;;;;;;;5018292;28;20065;-76
2021/07/22 11:41:18;;;;;;;4.82;2.22;;;;;;;;;;5006404;28;20119;-76
2021/07/22 11:43:46;;;;;;;5.03;2.55;;;;;;;;;;5006698;28;20080;-76
2021/07/22 11:46:13;;;;;;;5.35;3.08;;;;;;;;;;4987911;28;20474;-76
2021/07/22 11:48:40;;;;;;;4.47;2.80;;;;;;;;;;5003011;28;20053;-76
2021/07/22 11:51:15;;;;;;;5.78;3.00;;;;;;;;;;4998738;28;20514;-76
2021/07/22 11:53:42;;;;;;;3.55;1.83;;;;;;;;;;5006926;28;20119;-76
2021/07/22 11:56:15;;;;;;;3.17;1.88;;;;;;;;;;5006001;28;20595;-76
2021/07/22 11:58:46;;;;;;;4.30;2.60;;;;;;;;;;4995703;28;20085;-76
2021/07/22 12:01:13;;;;;;;3.97;2.53;;;;;;;;;;5001321;28;20144;-76
2021/07/22 12:03:40;;;;;;;5.80;3.00;;;;;;;;;;5006790;28;20568;-75
2021/07/22 12:06:06;;;;;;;5.65;2.78;;;;;;;;;;4997397;28;20707;-75
2021/07/22 12:08:33;;;;;;;4.28;2.40;;;;;;;;;;5008883;28;20070;-76
2021/07/22 12:11:01;;;;;;;6.10;2.40;;;;;;;;;;5005324;28;20062;-75
2021/07/22 12:13:44;;;;;;;3.80;2.42;;;;;;;;;;5007878;28;20050;-75
2021/07/22 12:16:11;;;;;;;4.65;2.80;;;;;;;;;;5007297;28;20118;-75
2021/07/22 12:18:37;;;;;;;4.90;2.72;;;;;;;;;;5003383;28;20069;-75
2021/07/22 12:21:04;;;;;;;5.93;2.85;;;;;;;;;;5011968;28;20435;-76
2021/07/22 12:23:31;;;;;;;5.60;2.80;;;;;;;;;;5006456;28;20069;-77
2021/07/22 12:25:59;;;;;;;5.05;2.50;;;;;;;;;;5013276;28;21293;-77
2021/07/22 12:28:25;;;;;;;4.80;2.15;;;;;;;;;;5007049;28;20691;-76
2021/07/22 12:30:52;;;;;;;5.55;2.47;;;;;;;;;;5012637;28;20682;-76
2021/07/22 12:33:27;;;;;;;5.72;2.90;;;;;;;;;;5009184;28;20061;-76
2021/07/22 12:35:55;;;;;;;6.20;2.78;;;;;;;;;;5007213;28;20062;-76
2021/07/22 12:38:21;;;;;;;5.15;1.70;;;;;;;;;;5003356;28;20045;-76
2021/07/22 12:40:48;;;;;;;5.22;2.80;;;;;;;;;;5005047;28;20061;-76
2021/07/22 12:43:16;;;;;;;4.20;2.58;;;;;;;;;;5007535;28;20116;-76
2021/07/22 12:45:44;;;;;;;6.32;2.58;;;;;;;;;;5007064;28;20034;-76
2021/07/22 12:48:13;;;;;;;5.68;2.47;;;;;;;;;;5000759;28;20474;-76
2021/07/22 12:50:40;;;;;;;5.22;2.50;;;;;;;;;;5005347;28;20135;-76
2021/07/22 12:53:11;;;;;;;4.10;2.25;;;;;;;;;;5005212;28;20069;-75
2021/07/22 12:55:41;;;;;;;5.47;2.47;;;;;;;;;;4997328;28;20066;-75
2021/07/22 12:58:23;;;;;;;4.00;2.10;;;;;;;;;;5003614;28;20057;-76
2021/07/22 13:00:49;;;;;;;4.88;2.40;;;;;;;;;;5007281;28;20100;-76
2021/07/22 13:03:16;;;;;;;8.55;2.97;;;;;;;;;;4988114;28;20065;-76
2021/07/22 13:05:42;;;;;;;4.90;2.42;;;;;;;;;;5003989;28;20060;-75
2021/07/22 13:08:08;;;;;;;4.82;2.35;;;;;;;;;;5008479;28;20092;-75
2021/07/22 13:10:37;;;;;;;5.07;2.33;;;;;;;;;;5006049;28;20074;-79
2021/07/22 13:13:06;;;;;;;5.20;2.30;;;;;;;;;;5007285;28;20123;-76
2021/07/22 13:15:33;;;;;;;6.22;2.50;;;;;;;;;;5021645;28;20495;-75
2021/07/22 13:17:59;;;;;;;5.50;2.38;;;;;;;;;;5001168;28;20077;-76
2021/07/22 13:20:26;;;;;;;4.00;1.80;;;;;;;;;;5001497;28;20555;-76
2021/07/22 13:22:52;;;;;;;4.78;2.38;;;;;;;;;;5002914;28;20058;-76
2021/07/22 13:25:18;;;;;;;6.38;2.33;;;;;;;;;;5004800;28;20053;-75
2021/07/22 13:27:45;;;;;;;4.75;1.98;;;;;;;;;;5004773;28;20562;-75
2021/07/22 13:30:12;;;;;;;4.57;2.20;;;;;;;;;;5000187;28;20058;-76
2021/07/22 13:32:40;;;;;;;5.47;2.50;;;;;;;;;;5006591;28;20536;-76
2021/07/22 13:35:08;;;;;;;5.38;2.58;;;;;;;;;;5005662;28;20481;-75
2021/07/22 13:37:35;;;;;;;5.50;2.40;;;;;;;;;;5004028;28;20642;-76
2021/07/22 13:40:02;;;;;;;4.60;2.30;;;;;;;;;;5007556;28;20057;-75
2021/07/22 13:42:28;;;;;;;6.43;2.50;;;;;;;;;;5007494;28;20066;-77
2021/07/22 13:44:54;;;;;;;4.93;2.15;;;;;;;;;;5012997;28;20096;-77
2021/07/22 13:47:21;;;;;;;6.03;2.40;;;;;;;;;;5015408;28;20110;-77
2021/07/22 13:49:47;;;;;;;6.53;2.28;;;;;;;;;;5009199;28;20076;-77
2021/07/22 13:52:14;;;;;;;4.35;2.30;;;;;;;;;;5012157;28;20073;-77
2021/07/22 13:54:40;;;;;;;5.32;2.33;;;;;;;;;;5001778;28;20061;-76
2021/07/22 13:57:07;;;;;;;4.45;2.17;;;;;;;;;;5007435;28;20455;-76
2021/07/22 13:59:34;;;;;;;5.57;2.30;;;;;;;;;;5007419;28;20065;-75
2021/07/22 14:02:03;;;;;;;4.35;2.22;;;;;;;;;;5008927;28;20057;-75
2021/07/22 14:04:30;;;;;;;4.88;2.28;;;;;;;;;;5010628;28;20065;-76
2021/07/22 14:06:56;;;;;;;6.53;2.55;;;;;;;;;;5005595;28;20060;-77
2021/07/22 14:09:23;;;;;;;5.97;3.00;;;;;;;;;;5005922;28;21569;-76
2021/07/22 14:11:49;;;;;;;4.03;1.92;;;;;;;;;;5017660;28;20065;-77
2021/07/22 14:14:16;;;;;;;5.18;2.17;;;;;;;;;;5005506;28;20100;-76
2021/07/22 14:16:42;;;;;;;3.53;2.25;;;;;;;;;;5007893;28;20116;-75
2021/07/22 14:19:09;;;;;;;5.72;2.55;;;;;;;;;;5008604;28;20053;-76
2021/07/22 14:21:35;;;;;;;4.93;2.13;;;;;;;;;;5012556;28;20073;-75
2021/07/22 14:24:02;;;;;;;4.50;2.20;;;;;;;;;;4986154;28;20168;-75
2021/07/22 14:26:28;;;;;;;3.78;2.17;;;;;;;;;;5016874;28;20497;-75
2021/07/22 14:28:55;;;;;;;4.32;2.00;;;;;;;;;;5016628;28;20069;-75
2021/07/22 14:31:22;;;;;;;4.25;1.98;;;;;;;;;;5005855;28;22602;-75
2021/07/22 14:33:49;;;;;;;5.63;2.30;;;;;;;;;;5011184;28;20058;-76
2021/07/22 14:36:16;;;;;;;5.55;2.30;;;;;;;;;;5008344;28;20552;-76
2021/07/22 14:38:42;;;;;;;6.60;2.67;;;;;;;;;;5010020;28;20107;-76
2021/07/22 14:41:09;;;;;;;6.05;2.40;;;;;;;;;;5012916;28;20057;-76
2021/07/22 14:43:35;;;;;;;5.80;2.28;;;;;;;;;;5009019;28;20057;-76
2021/07/22 14:46:02;;;;;;;5.38;2.30;;;;;;;;;;5006954;28;20520;-75